sensor_id;sensor_type;location;lat;lon;timestamp;P1;durP1;ratioP1;P2;durP2;ratioP2
50773;SDS011;36745;48.544;8.918;2023-08-06T00:02:30;6.10;;;4.07;;
50773;SDS011;36745;48.544;8.918;2023-08-06T00:05:49;6.93;;;4.30;;
50773;SDS011;36745;48.544;8.918;2023-08-06T00:09:08;5.30;;;4.25;;
50773;SDS011;36745;48.544;8.918;2023-08-06T00:12:27;10.63;;;4.30;;
50773;SDS011;36745;48.544;8.918;2023-08-06T00:15:46;4.25;;;3.85;;
50773;SDS011;36745;48.544;8.918;2023-08-06T00:19:05;4.13;;;3.78;;
50773;SDS011;36745;48.544;8.918;2023-08-06T00:22:24;4.60;;;4.10;;
50773;SDS011;36745;48.544;8.918;2023-08-06T00:25:43;5.10;;;4.60;;
50773;SDS011;36745;48.544;8.918;2023-08-06T00:29:02;5.30;;;4.18;;
50773;SDS011;36745;48.544;8.918;2023-08-06T00:32:21;7.07;;;4.65;;
50773;SDS011;36745;48.544;8.918;2023-08-06T00:35:41;5.30;;;4.20;;
50773;SDS011;36745;48.544;8.918;2023-08-06T00:39:00;7.07;;;5.22;;
50773;SDS011;36745;48.544;8.918;2023-08-06T00:42:19;6.10;;;4.57;;
50773;SDS011;36745;48.544;8.918;2023-08-06T00:45:39;7.70;;;4.47;;
50773;SDS011;36745;48.544;8.918;2023-08-06T00:48:58;6.47;;;4.25;;
50773;SDS011;36745;48.544;8.918;2023-08-06T00:52:17;5.20;;;3.38;;
50773;SDS011;36745;48.544;8.918;2023-08-06T00:55:36;7.60;;;4.03;;
50773;SDS011;36745;48.544;8.918;2023-08-06T00:58:55;5.78;;;3.65;;
50773;SDS011;36745;48.544;8.918;2023-08-06T01:02:15;5.68;;;3.30;;
50773;SDS011;36745;48.544;8.918;2023-08-06T01:05:34;6.43;;;3.72;;
50773;SDS011;36745;48.544;8.918;2023-08-06T01:08:58;5.38;;;3.70;;
50773;SDS011;36745;48.544;8.918;2023-08-06T01:15:51;4.13;;;3.80;;
50773;SDS011;36745;48.544;8.918;2023-08-06T01:19:16;6.53;;;3.22;;
50773;SDS011;36745;48.544;8.918;2023-08-06T01:22:36;3.85;;;3.15;;
50773;SDS011;36745;48.544;8.918;2023-08-06T01:32:41;6.72;;;3.20;;
50773;SDS011;36745;48.544;8.918;2023-08-06T01:36:03;3.67;;;3.38;;
50773;SDS011;36745;48.544;8.918;2023-08-06T01:39:23;6.20;;;3.60;;
50773;SDS011;36745;48.544;8.918;2023-08-06T01:42:42;3.50;;;3.20;;
50773;SDS011;36745;48.544;8.918;2023-08-06T01:46:00;6.85;;;3.90;;
50773;SDS011;36745;48.544;8.918;2023-08-06T01:49:19;7.00;;;3.80;;
50773;SDS011;36745;48.544;8.918;2023-08-06T01:52:38;5.15;;;4.10;;
50773;SDS011;36745;48.544;8.918;2023-08-06T01:55:57;6.60;;;4.15;;
50773;SDS011;36745;48.544;8.918;2023-08-06T01:59:16;7.88;;;4.28;;
50773;SDS011;36745;48.544;8.918;2023-08-06T02:02:35;8.07;;;4.53;;
50773;SDS011;36745;48.544;8.918;2023-08-06T02:05:54;9.82;;;4.28;;
50773;SDS011;36745;48.544;8.918;2023-08-06T02:09:13;4.82;;;4.25;;
50773;SDS011;36745;48.544;8.918;2023-08-06T02:12:32;9.90;;;4.40;;
50773;SDS011;36745;48.544;8.918;2023-08-06T02:15:51;5.20;;;3.63;;
50773;SDS011;36745;48.544;8.918;2023-08-06T02:19:10;7.45;;;4.18;;
50773;SDS011;36745;48.544;8.918;2023-08-06T02:22:29;5.97;;;4.93;;
50773;SDS011;36745;48.544;8.918;2023-08-06T02:25:48;5.07;;;3.72;;
50773;SDS011;36745;48.544;8.918;2023-08-06T02:29:07;9.18;;;3.95;;
50773;SDS011;36745;48.544;8.918;2023-08-06T02:32:26;3.58;;;3.28;;
50773;SDS011;36745;48.544;8.918;2023-08-06T02:35:45;4.25;;;3.85;;
50773;SDS011;36745;48.544;8.918;2023-08-06T02:39:03;8.48;;;3.80;;
50773;SDS011;36745;48.544;8.918;2023-08-06T02:42:22;6.50;;;4.18;;
50773;SDS011;36745;48.544;8.918;2023-08-06T02:45:41;4.55;;;3.42;;
50773;SDS011;36745;48.544;8.918;2023-08-06T02:49:00;4.70;;;3.42;;
50773;SDS011;36745;48.544;8.918;2023-08-06T02:52:19;4.03;;;3.55;;
50773;SDS011;36745;48.544;8.918;2023-08-06T02:55:38;5.68;;;3.47;;
50773;SDS011;36745;48.544;8.918;2023-08-06T02:59:07;8.07;;;3.50;;
50773;SDS011;36745;48.544;8.918;2023-08-06T03:02:26;4.65;;;3.25;;
50773;SDS011;36745;48.544;8.918;2023-08-06T03:05:51;7.97;;;3.35;;
50773;SDS011;36745;48.544;8.918;2023-08-06T03:09:13;5.28;;;3.10;;
50773;SDS011;36745;48.544;8.918;2023-08-06T03:12:32;5.75;;;3.78;;
50773;SDS011;36745;48.544;8.918;2023-08-06T03:15:54;6.70;;;3.88;;
50773;SDS011;36745;48.544;8.918;2023-08-06T03:19:18;6.45;;;4.25;;
50773;SDS011;36745;48.544;8.918;2023-08-06T03:22:37;4.70;;;4.20;;
50773;SDS011;36745;48.544;8.918;2023-08-06T03:25:56;6.65;;;4.15;;
50773;SDS011;36745;48.544;8.918;2023-08-06T03:29:15;5.20;;;3.63;;
50773;SDS011;36745;48.544;8.918;2023-08-06T03:32:34;5.43;;;3.72;;
50773;SDS011;36745;48.544;8.918;2023-08-06T03:35:53;6.25;;;4.00;;
50773;SDS011;36745;48.544;8.918;2023-08-06T03:39:12;8.00;;;4.35;;
50773;SDS011;36745;48.544;8.918;2023-08-06T03:42:32;6.10;;;4.70;;
50773;SDS011;36745;48.544;8.918;2023-08-06T03:45:51;4.65;;;2.63;;
50773;SDS011;36745;48.544;8.918;2023-08-06T03:49:10;5.45;;;2.08;;
50773;SDS011;36745;48.544;8.918;2023-08-06T03:52:29;7.03;;;2.40;;
50773;SDS011;36745;48.544;8.918;2023-08-06T03:55:47;5.50;;;2.17;;
50773;SDS011;36745;48.544;8.918;2023-08-06T03:59:06;5.25;;;2.15;;
50773;SDS011;36745;48.544;8.918;2023-08-06T04:02:25;2.45;;;1.88;;
50773;SDS011;36745;48.544;8.918;2023-08-06T04:05:44;3.03;;;1.90;;
50773;SDS011;36745;48.544;8.918;2023-08-06T04:09:03;3.58;;;1.58;;
50773;SDS011;36745;48.544;8.918;2023-08-06T04:12:22;4.88;;;2.00;;
50773;SDS011;36745;48.544;8.918;2023-08-06T04:15:42;4.45;;;1.40;;
50773;SDS011;36745;48.544;8.918;2023-08-06T04:19:01;2.70;;;1.58;;
50773;SDS011;36745;48.544;8.918;2023-08-06T04:22:20;2.33;;;1.10;;
50773;SDS011;36745;48.544;8.918;2023-08-06T04:25:39;5.45;;;1.30;;
50773;SDS011;36745;48.544;8.918;2023-08-06T04:28:58;3.30;;;1.65;;
50773;SDS011;36745;48.544;8.918;2023-08-06T04:32:17;3.67;;;1.38;;
50773;SDS011;36745;48.544;8.918;2023-08-06T04:35:37;2.35;;;1.02;;
50773;SDS011;36745;48.544;8.918;2023-08-06T04:38:56;4.13;;;1.20;;
50773;SDS011;36745;48.544;8.918;2023-08-06T04:42:15;1.40;;;0.98;;
50773;SDS011;36745;48.544;8.918;2023-08-06T04:45:34;2.95;;;1.10;;
50773;SDS011;36745;48.544;8.918;2023-08-06T04:48:53;6.57;;;0.85;;
50773;SDS011;36745;48.544;8.918;2023-08-06T04:52:12;5.63;;;0.98;;
50773;SDS011;36745;48.544;8.918;2023-08-06T04:55:31;4.63;;;0.90;;
50773;SDS011;36745;48.544;8.918;2023-08-06T04:58:50;1.67;;;0.82;;
50773;SDS011;36745;48.544;8.918;2023-08-06T05:02:09;1.27;;;0.80;;
50773;SDS011;36745;48.544;8.918;2023-08-06T05:05:28;3.47;;;1.00;;
50773;SDS011;36745;48.544;8.918;2023-08-06T05:08:48;2.72;;;0.77;;
50773;SDS011;36745;48.544;8.918;2023-08-06T05:12:07;3.85;;;1.00;;
50773;SDS011;36745;48.544;8.918;2023-08-06T05:15:26;6.53;;;1.27;;
50773;SDS011;36745;48.544;8.918;2023-08-06T05:18:46;2.33;;;0.80;;
50773;SDS011;36745;48.544;8.918;2023-08-06T05:22:05;4.57;;;1.08;;
50773;SDS011;36745;48.544;8.918;2023-08-06T05:25:24;1.88;;;0.80;;
50773;SDS011;36745;48.544;8.918;2023-08-06T05:28:42;2.67;;;0.75;;
50773;SDS011;36745;48.544;8.918;2023-08-06T05:32:02;1.45;;;0.80;;
50773;SDS011;36745;48.544;8.918;2023-08-06T05:35:21;3.25;;;0.68;;
50773;SDS011;36745;48.544;8.918;2023-08-06T05:38:40;10.63;;;2.20;;
50773;SDS011;36745;48.544;8.918;2023-08-06T05:41:59;4.40;;;0.98;;
50773;SDS011;36745;48.544;8.918;2023-08-06T05:45:18;5.78;;;0.80;;
50773;SDS011;36745;48.544;8.918;2023-08-06T05:48:37;2.75;;;1.38;;
50773;SDS011;36745;48.544;8.918;2023-08-06T05:51:56;2.88;;;0.85;;
50773;SDS011;36745;48.544;8.918;2023-08-06T05:55:15;2.05;;;0.90;;
50773;SDS011;36745;48.544;8.918;2023-08-06T05:58:36;1.88;;;0.93;;
50773;SDS011;36745;48.544;8.918;2023-08-06T06:01:59;1.85;;;0.80;;
50773;SDS011;36745;48.544;8.918;2023-08-06T06:05:17;2.75;;;0.88;;
50773;SDS011;36745;48.544;8.918;2023-08-06T06:08:36;2.30;;;0.77;;
50773;SDS011;36745;48.544;8.918;2023-08-06T06:11:55;3.88;;;0.90;;
50773;SDS011;36745;48.544;8.918;2023-08-06T06:15:14;1.70;;;0.73;;
50773;SDS011;36745;48.544;8.918;2023-08-06T06:18:33;1.65;;;0.93;;
50773;SDS011;36745;48.544;8.918;2023-08-06T06:21:52;4.85;;;0.90;;
50773;SDS011;36745;48.544;8.918;2023-08-06T06:25:12;2.72;;;1.02;;
50773;SDS011;36745;48.544;8.918;2023-08-06T06:28:30;2.28;;;0.88;;
50773;SDS011;36745;48.544;8.918;2023-08-06T06:31:49;2.20;;;0.70;;
50773;SDS011;36745;48.544;8.918;2023-08-06T06:35:08;1.58;;;0.82;;
50773;SDS011;36745;48.544;8.918;2023-08-06T06:38:28;0.95;;;0.60;;
50773;SDS011;36745;48.544;8.918;2023-08-06T06:41:47;0.52;;;0.50;;
50773;SDS011;36745;48.544;8.918;2023-08-06T06:45:06;0.75;;;0.35;;
50773;SDS011;36745;48.544;8.918;2023-08-06T06:48:26;1.80;;;0.50;;
50773;SDS011;36745;48.544;8.918;2023-08-06T06:51:46;1.27;;;0.30;;
50773;SDS011;36745;48.544;8.918;2023-08-06T06:55:05;0.40;;;0.30;;
50773;SDS011;36745;48.544;8.918;2023-08-06T06:58:28;1.00;;;0.55;;
50773;SDS011;36745;48.544;8.918;2023-08-06T07:01:47;2.63;;;0.70;;
50773;SDS011;36745;48.544;8.918;2023-08-06T07:05:06;0.35;;;0.20;;
50773;SDS011;36745;48.544;8.918;2023-08-06T07:08:26;0.88;;;0.20;;
50773;SDS011;36745;48.544;8.918;2023-08-06T07:11:45;2.25;;;0.50;;
50773;SDS011;36745;48.544;8.918;2023-08-06T07:15:05;2.22;;;0.30;;
50773;SDS011;36745;48.544;8.918;2023-08-06T07:18:25;0.35;;;0.20;;
50773;SDS011;36745;48.544;8.918;2023-08-06T07:21:44;0.90;;;0.20;;
50773;SDS011;36745;48.544;8.918;2023-08-06T07:25:03;0.70;;;0.20;;
50773;SDS011;36745;48.544;8.918;2023-08-06T07:28:22;1.73;;;0.10;;
50773;SDS011;36745;48.544;8.918;2023-08-06T07:31:41;0.50;;;0.40;;
50773;SDS011;36745;48.544;8.918;2023-08-06T07:35:00;2.15;;;0.30;;
50773;SDS011;36745;48.544;8.918;2023-08-06T07:38:21;1.15;;;0.60;;
50773;SDS011;36745;48.544;8.918;2023-08-06T07:41:40;1.48;;;0.30;;
50773;SDS011;36745;48.544;8.918;2023-08-06T07:44:59;0.80;;;0.30;;
50773;SDS011;36745;48.544;8.918;2023-08-06T07:48:18;1.55;;;0.20;;
50773;SDS011;36745;48.544;8.918;2023-08-06T07:51:37;0.35;;;0.20;;
50773;SDS011;36745;48.544;8.918;2023-08-06T07:54:57;1.02;;;0.20;;
50773;SDS011;36745;48.544;8.918;2023-08-06T07:58:16;0.70;;;0.30;;
50773;SDS011;36745;48.544;8.918;2023-08-06T08:01:35;1.35;;;0.20;;
50773;SDS011;36745;48.544;8.918;2023-08-06T08:04:54;0.98;;;0.20;;
50773;SDS011;36745;48.544;8.918;2023-08-06T08:08:13;0.80;;;0.30;;
50773;SDS011;36745;48.544;8.918;2023-08-06T08:11:33;0.20;;;0.20;;
50773;SDS011;36745;48.544;8.918;2023-08-06T08:14:52;0.20;;;0.20;;
50773;SDS011;36745;48.544;8.918;2023-08-06T08:18:11;1.55;;;0.20;;
50773;SDS011;36745;48.544;8.918;2023-08-06T08:21:30;2.08;;;0.25;;
50773;SDS011;36745;48.544;8.918;2023-08-06T08:24:49;0.85;;;0.17;;
50773;SDS011;36745;48.544;8.918;2023-08-06T08:28:08;1.30;;;0.40;;
50773;SDS011;36745;48.544;8.918;2023-08-06T08:31:27;0.50;;;0.20;;
50773;SDS011;36745;48.544;8.918;2023-08-06T08:34:47;0.28;;;0.10;;
50773;SDS011;36745;48.544;8.918;2023-08-06T08:38:06;0.10;;;0.10;;
50773;SDS011;36745;48.544;8.918;2023-08-06T08:41:25;0.30;;;0.10;;
50773;SDS011;36745;48.544;8.918;2023-08-06T08:44:48;0.10;;;0.10;;
50773;SDS011;36745;48.544;8.918;2023-08-06T08:48:07;0.88;;;0.05;;
50773;SDS011;36745;48.544;8.918;2023-08-06T08:51:27;2.72;;;0.20;;
50773;SDS011;36745;48.544;8.918;2023-08-06T08:54:47;1.30;;;0.20;;
50773;SDS011;36745;48.544;8.918;2023-08-06T08:58:10;0.57;;;0.10;;
50773;SDS011;36745;48.544;8.918;2023-08-06T09:01:29;0.57;;;0.20;;
50773;SDS011;36745;48.544;8.918;2023-08-06T09:04:49;0.85;;;0.20;;
50773;SDS011;36745;48.544;8.918;2023-08-06T09:08:08;0.65;;;0.13;;
50773;SDS011;36745;48.544;8.918;2023-08-06T09:11:30;0.50;;;0.10;;
50773;SDS011;36745;48.544;8.918;2023-08-06T09:14:58;0.17;;;0.10;;
50773;SDS011;36745;48.544;8.918;2023-08-06T09:18:24;0.10;;;0.05;;
50773;SDS011;36745;48.544;8.918;2023-08-06T09:21:45;0.10;;;0.10;;
50773;SDS011;36745;48.544;8.918;2023-08-06T09:25:08;2.85;;;0.30;;
50773;SDS011;36745;48.544;8.918;2023-08-06T09:28:38;1.55;;;0.20;;
50773;SDS011;36745;48.544;8.918;2023-08-06T09:31:58;0.20;;;0.10;;
50773;SDS011;36745;48.544;8.918;2023-08-06T09:35:17;2.22;;;0.50;;
50773;SDS011;36745;48.544;8.918;2023-08-06T09:38:38;3.15;;;1.38;;
50773;SDS011;36745;48.544;8.918;2023-08-06T09:41:59;1.02;;;0.20;;
50773;SDS011;36745;48.544;8.918;2023-08-06T09:45:19;2.45;;;0.65;;
50773;SDS011;36745;48.544;8.918;2023-08-06T09:48:46;1.08;;;0.30;;
50773;SDS011;36745;48.544;8.918;2023-08-06T09:52:05;0.83;;;0.17;;
50773;SDS011;36745;48.544;8.918;2023-08-06T09:55:27;4.53;;;0.38;;
50773;SDS011;36745;48.544;8.918;2023-08-06T09:58:46;3.25;;;0.20;;
50773;SDS011;36745;48.544;8.918;2023-08-06T10:02:11;0.77;;;0.25;;
50773;SDS011;36745;48.544;8.918;2023-08-06T10:05:31;0.65;;;0.25;;
50773;SDS011;36745;48.544;8.918;2023-08-06T10:08:52;1.52;;;0.45;;
50773;SDS011;36745;48.544;8.918;2023-08-06T10:12:11;2.20;;;0.32;;
50773;SDS011;36745;48.544;8.918;2023-08-06T10:15:31;0.85;;;0.30;;
50773;SDS011;36745;48.544;8.918;2023-08-06T10:18:51;2.95;;;0.30;;
50773;SDS011;36745;48.544;8.918;2023-08-06T10:22:11;2.33;;;0.22;;
50773;SDS011;36745;48.544;8.918;2023-08-06T10:25:31;0.75;;;0.32;;
50773;SDS011;36745;48.544;8.918;2023-08-06T10:28:52;0.32;;;0.10;;
50773;SDS011;36745;48.544;8.918;2023-08-06T10:32:11;0.40;;;0.13;;
50773;SDS011;36745;48.544;8.918;2023-08-06T10:35:31;1.70;;;0.17;;
50773;SDS011;36745;48.544;8.918;2023-08-06T10:38:54;0.43;;;0.20;;
50773;SDS011;36745;48.544;8.918;2023-08-06T10:42:20;2.08;;;0.38;;
50773;SDS011;36745;48.544;8.918;2023-08-06T10:45:49;0.28;;;0.20;;
50773;SDS011;36745;48.544;8.918;2023-08-06T10:49:09;1.02;;;0.20;;
50773;SDS011;36745;48.544;8.918;2023-08-06T10:52:30;1.45;;;0.20;;
50773;SDS011;36745;48.544;8.918;2023-08-06T10:55:49;0.17;;;0.03;;
50773;SDS011;36745;48.544;8.918;2023-08-06T10:59:08;1.85;;;0.20;;
50773;SDS011;36745;48.544;8.918;2023-08-06T11:02:29;0.52;;;0.10;;
50773;SDS011;36745;48.544;8.918;2023-08-06T11:05:52;0.65;;;0.20;;
50773;SDS011;36745;48.544;8.918;2023-08-06T11:09:11;0.50;;;0.20;;
50773;SDS011;36745;48.544;8.918;2023-08-06T11:12:33;0.15;;;0.10;;
50773;SDS011;36745;48.544;8.918;2023-08-06T11:15:53;0.90;;;0.10;;
50773;SDS011;36745;48.544;8.918;2023-08-06T11:19:12;1.10;;;0.17;;
50773;SDS011;36745;48.544;8.918;2023-08-06T11:22:34;0.55;;;0.20;;
50773;SDS011;36745;48.544;8.918;2023-08-06T11:25:57;2.22;;;0.30;;
50773;SDS011;36745;48.544;8.918;2023-08-06T11:29:16;0.98;;;0.25;;
50773;SDS011;36745;48.544;8.918;2023-08-06T11:32:44;1.15;;;0.13;;
50773;SDS011;36745;48.544;8.918;2023-08-06T11:36:04;0.52;;;0.20;;
50773;SDS011;36745;48.544;8.918;2023-08-06T11:39:23;0.80;;;0.30;;
50773;SDS011;36745;48.544;8.918;2023-08-06T11:42:43;0.10;;;0.10;;
50773;SDS011;36745;48.544;8.918;2023-08-06T11:46:01;1.05;;;0.93;;
50773;SDS011;36745;48.544;8.918;2023-08-06T11:49:37;0.40;;;0.40;;
50773;SDS011;36745;48.544;8.918;2023-08-06T11:52:56;0.30;;;0.30;;
50773;SDS011;36745;48.544;8.918;2023-08-06T11:56:17;0.40;;;0.40;;
50773;SDS011;36745;48.544;8.918;2023-08-06T11:59:36;2.53;;;0.50;;
50773;SDS011;36745;48.544;8.918;2023-08-06T12:02:56;1.65;;;0.70;;
50773;SDS011;36745;48.544;8.918;2023-08-06T12:06:16;2.55;;;1.05;;
50773;SDS011;36745;48.544;8.918;2023-08-06T12:09:35;4.22;;;1.40;;
50773;SDS011;36745;48.544;8.918;2023-08-06T12:12:54;1.15;;;0.95;;
50773;SDS011;36745;48.544;8.918;2023-08-06T12:16:13;1.50;;;0.88;;
50773;SDS011;36745;48.544;8.918;2023-08-06T12:19:32;2.63;;;1.30;;
50773;SDS011;36745;48.544;8.918;2023-08-06T12:22:51;2.15;;;1.40;;
50773;SDS011;36745;48.544;8.918;2023-08-06T12:26:10;1.55;;;1.20;;
50773;SDS011;36745;48.544;8.918;2023-08-06T12:29:29;2.90;;;1.30;;
50773;SDS011;36745;48.544;8.918;2023-08-06T12:32:49;1.88;;;1.13;;
50773;SDS011;36745;48.544;8.918;2023-08-06T12:36:11;3.22;;;0.93;;
50773;SDS011;36745;48.544;8.918;2023-08-06T12:39:30;4.53;;;1.10;;
50773;SDS011;36745;48.544;8.918;2023-08-06T12:42:50;2.47;;;1.10;;
50773;SDS011;36745;48.544;8.918;2023-08-06T12:46:09;0.93;;;0.73;;
50773;SDS011;36745;48.544;8.918;2023-08-06T12:49:28;0.88;;;0.77;;
50773;SDS011;36745;48.544;8.918;2023-08-06T12:52:48;0.93;;;0.90;;
50773;SDS011;36745;48.544;8.918;2023-08-06T12:56:07;0.93;;;0.82;;
50773;SDS011;36745;48.544;8.918;2023-08-06T12:59:26;1.50;;;0.90;;
50773;SDS011;36745;48.544;8.918;2023-08-06T13:02:45;1.52;;;0.70;;
50773;SDS011;36745;48.544;8.918;2023-08-06T13:06:03;0.95;;;0.80;;
50773;SDS011;36745;48.544;8.918;2023-08-06T13:09:23;1.00;;;0.80;;
50773;SDS011;36745;48.544;8.918;2023-08-06T13:16:33;1.30;;;0.82;;
50773;SDS011;36745;48.544;8.918;2023-08-06T13:19:53;0.68;;;0.68;;
50773;SDS011;36745;48.544;8.918;2023-08-06T13:23:12;0.95;;;0.75;;
50773;SDS011;36745;48.544;8.918;2023-08-06T13:26:33;1.02;;;0.70;;
50773;SDS011;36745;48.544;8.918;2023-08-06T13:29:53;2.72;;;0.63;;
50773;SDS011;36745;48.544;8.918;2023-08-06T13:33:12;0.50;;;0.45;;
50773;SDS011;36745;48.544;8.918;2023-08-06T13:36:31;2.97;;;0.65;;
50773;SDS011;36745;48.544;8.918;2023-08-06T13:39:50;1.15;;;0.63;;
50773;SDS011;36745;48.544;8.918;2023-08-06T13:43:09;3.15;;;0.85;;
50773;SDS011;36745;48.544;8.918;2023-08-06T13:46:28;1.17;;;0.52;;
50773;SDS011;36745;48.544;8.918;2023-08-06T13:49:47;0.50;;;0.50;;
50773;SDS011;36745;48.544;8.918;2023-08-06T13:53:06;2.45;;;0.40;;
50773;SDS011;36745;48.544;8.918;2023-08-06T13:56:25;0.40;;;0.40;;
50773;SDS011;36745;48.544;8.918;2023-08-06T13:59:44;1.23;;;0.32;;
50773;SDS011;36745;48.544;8.918;2023-08-06T14:03:02;2.55;;;0.50;;
50773;SDS011;36745;48.544;8.918;2023-08-06T14:06:21;1.10;;;0.20;;
50773;SDS011;36745;48.544;8.918;2023-08-06T14:09:40;0.85;;;0.40;;
50773;SDS011;36745;48.544;8.918;2023-08-06T14:13:01;0.40;;;0.40;;
50773;SDS011;36745;48.544;8.918;2023-08-06T14:16:20;0.68;;;0.40;;
50773;SDS011;36745;48.544;8.918;2023-08-06T14:19:39;0.93;;;0.70;;
50773;SDS011;36745;48.544;8.918;2023-08-06T14:22:58;1.48;;;0.45;;
50773;SDS011;36745;48.544;8.918;2023-08-06T14:26:17;2.13;;;0.52;;
50773;SDS011;36745;48.544;8.918;2023-08-06T14:29:36;1.73;;;0.68;;
50773;SDS011;36745;48.544;8.918;2023-08-06T14:32:54;0.52;;;0.50;;
50773;SDS011;36745;48.544;8.918;2023-08-06T14:36:13;2.33;;;0.43;;
50773;SDS011;36745;48.544;8.918;2023-08-06T14:39:33;0.50;;;0.40;;
50773;SDS011;36745;48.544;8.918;2023-08-06T14:42:51;0.82;;;0.40;;
50773;SDS011;36745;48.544;8.918;2023-08-06T14:46:10;1.17;;;0.40;;
50773;SDS011;36745;48.544;8.918;2023-08-06T14:49:29;0.40;;;0.40;;
50773;SDS011;36745;48.544;8.918;2023-08-06T14:52:48;0.40;;;0.40;;
50773;SDS011;36745;48.544;8.918;2023-08-06T14:56:08;1.20;;;0.30;;
50773;SDS011;36745;48.544;8.918;2023-08-06T14:59:27;0.60;;;0.40;;
50773;SDS011;36745;48.544;8.918;2023-08-06T15:02:46;0.70;;;0.50;;
50773;SDS011;36745;48.544;8.918;2023-08-06T15:06:06;1.45;;;0.57;;
50773;SDS011;36745;48.544;8.918;2023-08-06T15:09:26;1.30;;;1.00;;
50773;SDS011;36745;48.544;8.918;2023-08-06T15:12:45;0.90;;;0.60;;
50773;SDS011;36745;48.544;8.918;2023-08-06T15:16:04;2.25;;;0.70;;
50773;SDS011;36745;48.544;8.918;2023-08-06T15:19:23;1.70;;;0.50;;
50773;SDS011;36745;48.544;8.918;2023-08-06T15:22:43;0.50;;;0.50;;
50773;SDS011;36745;48.544;8.918;2023-08-06T15:26:02;4.40;;;1.00;;
50773;SDS011;36745;48.544;8.918;2023-08-06T15:29:21;2.17;;;0.80;;
50773;SDS011;36745;48.544;8.918;2023-08-06T15:32:40;0.40;;;0.40;;
50773;SDS011;36745;48.544;8.918;2023-08-06T15:36:02;1.27;;;0.80;;
50773;SDS011;36745;48.544;8.918;2023-08-06T15:39:21;0.60;;;0.60;;
50773;SDS011;36745;48.544;8.918;2023-08-06T15:42:40;0.60;;;0.60;;
50773;SDS011;36745;48.544;8.918;2023-08-06T15:46:00;0.73;;;0.60;;
50773;SDS011;36745;48.544;8.918;2023-08-06T15:49:19;1.90;;;0.70;;
50773;SDS011;36745;48.544;8.918;2023-08-06T15:52:37;0.60;;;0.60;;
50773;SDS011;36745;48.544;8.918;2023-08-06T15:55:56;4.63;;;0.80;;
50773;SDS011;36745;48.544;8.918;2023-08-06T16:02:42;2.47;;;1.08;;
50773;SDS011;36745;48.544;8.918;2023-08-06T16:06:01;0.80;;;0.80;;
50773;SDS011;36745;48.544;8.918;2023-08-06T16:09:21;2.03;;;0.75;;
50773;SDS011;36745;48.544;8.918;2023-08-06T16:12:41;1.42;;;1.30;;
50773;SDS011;36745;48.544;8.918;2023-08-06T16:16:00;0.90;;;0.70;;
50773;SDS011;36745;48.544;8.918;2023-08-06T16:19:19;1.15;;;0.77;;
50773;SDS011;36745;48.544;8.918;2023-08-06T16:22:38;0.50;;;0.50;;
50773;SDS011;36745;48.544;8.918;2023-08-06T16:25:57;0.68;;;0.60;;
50773;SDS011;36745;48.544;8.918;2023-08-06T16:29:16;1.60;;;0.98;;
50773;SDS011;36745;48.544;8.918;2023-08-06T16:32:35;0.80;;;0.60;;
50773;SDS011;36745;48.544;8.918;2023-08-06T16:35:55;1.27;;;0.73;;
50773;SDS011;36745;48.544;8.918;2023-08-06T16:39:14;3.17;;;0.70;;
50773;SDS011;36745;48.544;8.918;2023-08-06T16:42:38;1.98;;;0.80;;
50773;SDS011;36745;48.544;8.918;2023-08-06T16:45:58;2.10;;;0.70;;
50773;SDS011;36745;48.544;8.918;2023-08-06T16:49:17;1.13;;;0.47;;
50773;SDS011;36745;48.544;8.918;2023-08-06T16:52:36;0.70;;;0.57;;
50773;SDS011;36745;48.544;8.918;2023-08-06T16:55:55;0.90;;;0.47;;
50773;SDS011;36745;48.544;8.918;2023-08-06T16:59:17;2.55;;;0.70;;
50773;SDS011;36745;48.544;8.918;2023-08-06T17:02:36;0.93;;;0.70;;
50773;SDS011;36745;48.544;8.918;2023-08-06T17:05:55;1.73;;;1.02;;
50773;SDS011;36745;48.544;8.918;2023-08-06T17:09:14;1.17;;;0.80;;
50773;SDS011;36745;48.544;8.918;2023-08-06T17:12:33;0.95;;;0.63;;
50773;SDS011;36745;48.544;8.918;2023-08-06T17:15:52;2.08;;;1.00;;
50773;SDS011;36745;48.544;8.918;2023-08-06T17:19:11;1.80;;;1.10;;
50773;SDS011;36745;48.544;8.918;2023-08-06T17:22:31;2.80;;;1.20;;
50773;SDS011;36745;48.544;8.918;2023-08-06T17:25:52;1.50;;;1.20;;
50773;SDS011;36745;48.544;8.918;2023-08-06T17:29:13;3.90;;;1.40;;
50773;SDS011;36745;48.544;8.918;2023-08-06T17:32:32;3.17;;;1.30;;
50773;SDS011;36745;48.544;8.918;2023-08-06T17:35:51;2.58;;;1.15;;
50773;SDS011;36745;48.544;8.918;2023-08-06T17:39:10;1.67;;;1.20;;
50773;SDS011;36745;48.544;8.918;2023-08-06T17:42:29;1.90;;;1.23;;
50773;SDS011;36745;48.544;8.918;2023-08-06T17:45:48;1.88;;;1.10;;
50773;SDS011;36745;48.544;8.918;2023-08-06T17:49:06;4.00;;;1.40;;
50773;SDS011;36745;48.544;8.918;2023-08-06T17:52:25;2.75;;;1.17;;
50773;SDS011;36745;48.544;8.918;2023-08-06T17:55:44;2.47;;;1.40;;
50773;SDS011;36745;48.544;8.918;2023-08-06T17:59:03;2.47;;;1.25;;
50773;SDS011;36745;48.544;8.918;2023-08-06T18:02:22;1.95;;;1.35;;
50773;SDS011;36745;48.544;8.918;2023-08-06T18:05:41;2.55;;;1.30;;
50773;SDS011;36745;48.544;8.918;2023-08-06T18:09:00;3.03;;;1.30;;
50773;SDS011;36745;48.544;8.918;2023-08-06T18:12:20;2.95;;;1.20;;
50773;SDS011;36745;48.544;8.918;2023-08-06T18:15:39;3.63;;;1.40;;
50773;SDS011;36745;48.544;8.918;2023-08-06T18:18:58;3.40;;;1.50;;
50773;SDS011;36745;48.544;8.918;2023-08-06T18:22:17;1.60;;;1.50;;
50773;SDS011;36745;48.544;8.918;2023-08-06T18:25:36;1.48;;;1.17;;
50773;SDS011;36745;48.544;8.918;2023-08-06T18:28:55;2.95;;;1.40;;
50773;SDS011;36745;48.544;8.918;2023-08-06T18:32:14;2.22;;;1.40;;
50773;SDS011;36745;48.544;8.918;2023-08-06T18:35:33;3.55;;;1.50;;
50773;SDS011;36745;48.544;8.918;2023-08-06T18:38:52;2.67;;;1.50;;
50773;SDS011;36745;48.544;8.918;2023-08-06T18:42:11;3.80;;;1.65;;
50773;SDS011;36745;48.544;8.918;2023-08-06T18:45:30;2.60;;;1.50;;
50773;SDS011;36745;48.544;8.918;2023-08-06T18:48:54;5.80;;;1.85;;
50773;SDS011;36745;48.544;8.918;2023-08-06T18:52:14;2.88;;;1.95;;
50773;SDS011;36745;48.544;8.918;2023-08-06T18:55:32;7.15;;;1.80;;
50773;SDS011;36745;48.544;8.918;2023-08-06T18:58:54;5.70;;;2.33;;
50773;SDS011;36745;48.544;8.918;2023-08-06T19:02:13;3.30;;;2.45;;
50773;SDS011;36745;48.544;8.918;2023-08-06T19:05:32;4.72;;;2.40;;
50773;SDS011;36745;48.544;8.918;2023-08-06T19:08:50;6.50;;;2.20;;
50773;SDS011;36745;48.544;8.918;2023-08-06T19:12:09;9.60;;;4.20;;
50773;SDS011;36745;48.544;8.918;2023-08-06T19:15:28;4.43;;;2.53;;
50773;SDS011;36745;48.544;8.918;2023-08-06T19:18:48;3.55;;;1.65;;
50773;SDS011;36745;48.544;8.918;2023-08-06T19:22:07;3.95;;;1.73;;
50773;SDS011;36745;48.544;8.918;2023-08-06T19:25:26;2.05;;;1.52;;
50773;SDS011;36745;48.544;8.918;2023-08-06T19:28:45;3.05;;;1.77;;
50773;SDS011;36745;48.544;8.918;2023-08-06T19:32:04;3.97;;;1.70;;
50773;SDS011;36745;48.544;8.918;2023-08-06T19:35:25;7.38;;;2.10;;
50773;SDS011;36745;48.544;8.918;2023-08-06T19:38:44;5.07;;;1.58;;
50773;SDS011;36745;48.544;8.918;2023-08-06T19:42:03;3.72;;;1.70;;
50773;SDS011;36745;48.544;8.918;2023-08-06T19:45:22;3.28;;;2.00;;
50773;SDS011;36745;48.544;8.918;2023-08-06T19:48:41;5.13;;;2.15;;
50773;SDS011;36745;48.544;8.918;2023-08-06T19:52:00;7.45;;;2.22;;
50773;SDS011;36745;48.544;8.918;2023-08-06T19:55:19;3.78;;;1.98;;
50773;SDS011;36745;48.544;8.918;2023-08-06T19:58:37;4.65;;;2.10;;
50773;SDS011;36745;48.544;8.918;2023-08-06T20:01:56;4.25;;;2.00;;
50773;SDS011;36745;48.544;8.918;2023-08-06T20:05:15;4.65;;;1.90;;
50773;SDS011;36745;48.544;8.918;2023-08-06T20:08:35;4.57;;;2.00;;
50773;SDS011;36745;48.544;8.918;2023-08-06T20:11:57;4.43;;;1.90;;
50773;SDS011;36745;48.544;8.918;2023-08-06T20:15:16;5.10;;;1.80;;
50773;SDS011;36745;48.544;8.918;2023-08-06T20:18:35;3.47;;;1.80;;
50773;SDS011;36745;48.544;8.918;2023-08-06T20:21:54;3.58;;;1.70;;